createdAt,value
2023-02-01T00:00:24.414Z,74.52
2023-02-01T00:01:23.106Z,74.71
2023-02-01T00:02:23.139Z,75.00
2023-02-01T00:03:23.029Z,75.19
2023-02-01T00:04:22.951Z,74.87
2023-02-01T00:05:23.153Z,75.34
2023-02-01T00:06:22.947Z,75.53
2023-02-01T00:07:22.822Z,75.81
2023-02-01T00:08:25.007Z,75.53
2023-02-01T00:09:22.885Z,75.91
2023-02-01T00:10:23.167Z,75.81
2023-02-01T00:11:22.625Z,76.01
2023-02-01T00:12:23.807Z,75.81
2023-02-01T00:13:22.524Z,75.81
2023-02-01T00:14:22.591Z,75.81
2023-02-01T00:15:25.896Z,76.20
2023-02-01T00:16:22.378Z,76.48
2023-02-01T00:17:23.431Z,76.48
2023-02-01T00:18:22.282Z,76.20
2023-02-01T00:19:22.433Z,76.57
2023-02-01T00:20:22.476Z,76.48
2023-02-01T00:21:24.282Z,77.20
2023-02-01T00:22:22.095Z,77.39
2023-02-01T00:23:22.188Z,77.86
2023-02-01T00:24:22.009Z,77.33
2023-02-01T00:25:22.069Z,77.29
2023-02-01T00:26:21.907Z,77.48
2023-02-01T00:27:23.243Z,77.58
2023-02-01T00:28:21.832Z,77.77
2023-02-01T00:29:22.910Z,77.86
2023-02-01T00:30:22.034Z,77.58
2023-02-01T00:31:23.066Z,78.43
2023-02-01T00:32:21.614Z,77.96
2023-02-01T00:33:22.737Z,77.86
2023-02-01T00:34:22.805Z,78.62
2023-02-01T00:35:21.730Z,78.34
2023-02-01T00:36:21.427Z,78.62
2023-02-01T00:37:21.379Z,78.34
2023-02-01T00:38:21.326Z,78.81
2023-02-01T00:39:21.503Z,78.62
2023-02-01T00:40:21.451Z,78.62
2023-02-01T00:41:22.330Z,79.28
2023-02-01T00:42:21.132Z,79.57
2023-02-01T00:43:21.081Z,78.77
2023-02-01T00:44:23.224Z,79.53
2023-02-01T00:45:20.974Z,79.34
2023-02-01T00:46:22.490Z,79.15
2023-02-01T00:47:20.886Z,79.06
2023-02-01T00:48:20.854Z,79.15
2023-02-01T00:49:20.787Z,80.00
2023-02-01T00:50:21.352Z,80.00
2023-02-01T00:51:20.697Z,80.10
2023-02-01T00:52:21.787Z,80.19
2023-02-01T00:53:20.593Z,80.67
2023-02-01T00:54:20.551Z,80.67
2023-02-01T00:55:20.639Z,80.19
2023-02-01T00:56:20.469Z,80.76
2023-02-01T00:57:20.655Z,81.24
2023-02-01T00:58:20.505Z,80.67
2023-02-01T00:59:20.301Z,80.48
2023-02-01T01:00:20.566Z,81.14
2023-02-01T01:01:20.481Z,81.05
2023-02-01T01:02:20.221Z,80.86
2023-02-01T01:03:21.314Z,81.24
2023-02-01T01:04:20.076Z,81.62
2023-02-01T01:05:20.041Z,81.71
2023-02-01T01:06:20.107Z,81.62
2023-02-01T01:07:19.918Z,81.62
2023-02-01T01:08:20.122Z,82.28
2023-02-01T01:09:19.971Z,81.95
2023-02-01T01:10:20.067Z,81.86
2023-02-01T01:11:19.726Z,81.86
2023-02-01T01:12:20.804Z,82.24
2023-02-01T01:13:19.626Z,82.43
2023-02-01T01:14:21.800Z,82.14
2023-02-01T01:15:19.556Z,83.00
2023-02-01T01:16:19.527Z,83.28
2023-02-01T01:17:19.574Z,83.09
2023-02-01T01:18:19.385Z,83.18
2023-02-01T01:19:20.626Z,83.47
2023-02-01T01:20:19.611Z,83.18
2023-02-01T01:21:19.453Z,83.37
2023-02-01T01:22:19.189Z,83.28
2023-02-01T01:23:21.260Z,83.28
2023-02-01T01:24:19.087Z,83.56
2023-02-01T01:25:20.242Z,83.94
2023-02-01T01:26:19.089Z,84.23
2023-02-01T01:27:18.967Z,84.13
2023-02-01T01:28:19.139Z,84.23
2023-02-01T01:29:18.857Z,84.61
2023-02-01T01:30:20.364Z,84.42
2023-02-01T01:31:18.760Z,84.80
2023-02-01T01:32:18.732Z,85.17
2023-02-01T01:33:18.943Z,84.94
2023-02-01T01:34:18.891Z,84.94
2023-02-01T01:35:18.558Z,85.04
2023-02-01T01:36:18.614Z,85.32
2023-02-01T01:37:18.469Z,85.32
2023-02-01T01:38:18.406Z,85.80
2023-02-01T01:39:18.436Z,85.89
2023-02-01T01:40:28.932Z,86.74
2023-02-01T01:41:25.973Z,86.27
2023-02-01T01:42:26.009Z,86.36
2023-02-01T01:43:25.515Z,86.93
2023-02-01T01:44:26.577Z,87.12
2023-02-01T01:47:04.545Z,88.45
2023-02-01T01:48:04.582Z,88.45
2023-02-01T01:50:36.971Z,89.30
2023-02-01T01:51:36.013Z,89.58
2023-02-01T01:52:36.062Z,89.77
2023-02-01T01:55:15.120Z,90.44
2023-02-01T01:56:16.659Z,91.29
2023-02-01T01:57:09.117Z,91.14
2023-02-01T01:58:06.896Z,90.58
2023-02-01T01:59:07.079Z,90.86
2023-02-01T02:00:07.013Z,90.48
2023-02-01T02:01:06.810Z,89.72
2023-02-01T02:02:06.946Z,88.96
2023-02-01T02:03:06.650Z,88.21
2023-02-01T02:04:06.708Z,87.83
2023-02-01T02:05:06.544Z,87.83
2023-02-01T02:06:06.731Z,87.26
2023-02-01T02:07:06.787Z,86.98
2023-02-01T02:08:06.536Z,87.16
2023-02-01T02:09:07.177Z,86.07
2023-02-01T02:10:06.546Z,85.13
2023-02-01T02:11:06.253Z,84.89
2023-02-01T02:12:07.383Z,85.22
2023-02-01T02:13:06.186Z,85.50
2023-02-01T02:14:06.370Z,84.94
2023-02-01T02:15:06.064Z,85.22
2023-02-01T02:16:07.253Z,84.74
2023-02-01T02:17:05.956Z,84.46
2023-02-01T02:18:07.015Z,84.27
2023-02-01T02:19:06.057Z,83.70
2023-02-01T02:20:06.006Z,84.17
2023-02-01T02:21:05.764Z,83.80
2023-02-01T02:22:05.716Z,83.70
2023-02-01T02:23:05.663Z,83.89
2023-02-01T02:24:05.830Z,84.27
2023-02-01T02:25:05.688Z,83.98
2023-02-01T02:26:05.656Z,83.98
2023-02-01T02:27:05.467Z,84.36
2023-02-01T02:28:05.424Z,84.27
2023-02-01T02:29:06.480Z,83.98
2023-02-01T02:30:05.321Z,83.23
2023-02-01T02:31:06.666Z,83.23
2023-02-01T02:32:05.225Z,82.94
2023-02-01T02:33:05.180Z,83.23
2023-02-01T02:34:06.314Z,82.75
2023-02-01T02:35:05.077Z,81.99
2023-02-01T02:36:05.215Z,82.47
2023-02-01T02:37:05.041Z,82.28
2023-02-01T02:38:05.116Z,82.23
2023-02-01T02:39:04.893Z,81.56
2023-02-01T02:40:05.139Z,81.43
2023-02-01T02:41:04.789Z,82.04
2023-02-01T02:42:04.936Z,81.33
2023-02-01T02:43:07.051Z,81.62
2023-02-01T02:44:04.637Z,81.14
2023-02-01T02:45:04.614Z,80.86
2023-02-01T02:46:04.825Z,81.24
2023-02-01T02:47:04.501Z,81.52
2023-02-01T02:48:04.571Z,81.99
2023-02-01T02:49:04.399Z,81.43
2023-02-01T02:50:04.349Z,81.99
2023-02-01T02:51:06.645Z,82.18
2023-02-01T02:52:04.253Z,82.18
2023-02-01T02:53:04.408Z,82.28
2023-02-01T02:54:04.169Z,81.81
2023-02-01T02:55:04.109Z,81.99
2023-02-01T02:56:04.074Z,81.99
2023-02-01T02:57:04.156Z,82.56
2023-02-01T02:58:03.964Z,81.99
2023-02-01T02:59:03.951Z,81.90
2023-02-01T03:00:03.866Z,82.28
2023-02-01T03:01:03.854Z,81.81
2023-02-01T03:02:03.969Z,82.37
2023-02-01T03:03:03.724Z,81.99
2023-02-01T03:04:03.784Z,82.28
2023-02-01T03:05:03.626Z,82.18
2023-02-01T03:06:03.582Z,81.81
2023-02-01T03:07:03.528Z,81.90
2023-02-01T03:08:03.607Z,82.28
2023-02-01T03:09:03.433Z,82.66
2023-02-01T03:10:03.413Z,82.56
2023-02-01T03:11:03.337Z,82.47
2023-02-01T03:12:03.291Z,82.47
2023-02-01T03:13:03.448Z,82.28
2023-02-01T03:14:03.379Z,82.56
2023-02-01T03:15:03.350Z,82.56
2023-02-01T03:16:03.112Z,82.56
2023-02-01T03:17:03.068Z,82.75
2023-02-01T03:18:02.992Z,82.09
2023-02-01T03:19:03.188Z,82.18
2023-02-01T03:20:03.007Z,81.90
2023-02-01T03:21:02.973Z,82.09
2023-02-01T03:22:02.798Z,82.47
2023-02-01T03:23:02.767Z,82.37
2023-02-01T03:24:03.027Z,82.56
2023-02-01T03:25:02.654Z,82.47
2023-02-01T03:26:04.035Z,82.37
2023-02-01T03:27:02.559Z,83.13
2023-02-01T03:28:02.818Z,83.13
2023-02-01T03:29:02.458Z,83.37
2023-02-01T03:30:02.635Z,83.42
2023-02-01T03:31:02.414Z,83.32
2023-02-01T03:32:04.425Z,83.09
2023-02-01T03:33:02.507Z,83.28
2023-02-01T03:34:02.242Z,83.37
2023-02-01T03:35:02.164Z,82.94
2023-02-01T03:36:02.282Z,83.18
2023-02-01T03:37:02.064Z,83.37
2023-02-01T03:38:02.287Z,83.18
2023-02-01T03:39:02.142Z,83.00
2023-02-01T03:40:02.102Z,83.23
2023-02-01T03:41:01.873Z,82.75
2023-02-01T03:42:02.108Z,82.66
2023-02-01T03:43:01.779Z,82.47
2023-02-01T03:44:03.964Z,82.66
2023-02-01T03:45:01.679Z,82.56
2023-02-01T03:46:01.991Z,82.66
2023-02-01T03:47:01.620Z,83.09
2023-02-01T03:48:06.041Z,83.04
2023-02-01T03:49:01.477Z,82.56
2023-02-01T03:50:01.494Z,82.75
2023-02-01T03:51:01.387Z,82.18
2023-02-01T03:52:01.628Z,82.56
2023-02-01T03:53:01.281Z,82.43
2023-02-01T03:54:01.371Z,83.00
2023-02-01T03:55:01.206Z,83.00
2023-02-01T03:56:01.135Z,82.71
2023-02-01T03:57:02.320Z,83.00
2023-02-01T03:58:01.055Z,82.56
2023-02-01T03:59:01.327Z,82.52
2023-02-01T04:00:02.209Z,82.62
2023-02-01T04:01:00.968Z,82.33
2023-02-01T04:02:00.870Z,82.90
2023-02-01T04:03:00.951Z,83.37
2023-02-01T04:04:00.741Z,83.37
2023-02-01T04:05:00.937Z,83.85
2023-02-01T04:06:00.660Z,83.75
2023-02-01T04:07:00.601Z,84.32
2023-02-01T04:08:00.760Z,84.42
2023-02-01T04:09:00.502Z,84.23
2023-02-01T04:10:02.623Z,83.75
2023-02-01T04:11:01.758Z,83.94
2023-02-01T04:12:01.400Z,83.66
2023-02-01T04:13:00.303Z,84.13
2023-02-01T04:14:00.495Z,84.04
2023-02-01T04:15:00.207Z,84.08
2023-02-01T04:16:01.330Z,83.94
2023-02-01T04:17:00.135Z,83.94
2023-02-01T04:18:00.068Z,83.80
2023-02-01T04:19:00.016Z,83.32
2023-02-01T04:20:02.174Z,83.04
2023-02-01T04:21:00.095Z,82.37
2023-02-01T04:22:00.152Z,81.90
2023-02-01T04:22:59.812Z,82.28
2023-02-01T04:24:00.980Z,82.56
2023-02-01T04:24:59.718Z,82.37
2023-02-01T04:26:00.786Z,82.94
2023-02-01T04:26:59.715Z,83.04
2023-02-01T04:27:59.780Z,83.13
2023-02-01T04:29:01.724Z,82.28
2023-02-01T04:29:59.472Z,82.28
2023-02-01T04:30:59.782Z,82.18
2023-02-01T04:31:59.372Z,81.90
2023-02-01T04:33:00.734Z,82.09
2023-02-01T04:34:07.726Z,81.62
2023-02-01T04:35:08.309Z,81.62
2023-02-01T04:36:06.807Z,81.71
2023-02-01T04:37:00.157Z,81.43
2023-02-01T04:37:59.087Z,81.71
2023-02-01T04:38:59.055Z,80.95
2023-02-01T04:39:58.978Z,80.95
2023-02-01T04:40:58.931Z,80.86
2023-02-01T04:41:59.983Z,80.99
2023-02-01T04:42:58.841Z,80.52
2023-02-01T04:43:58.977Z,80.52
2023-02-01T04:44:58.825Z,80.14
2023-02-01T04:45:58.850Z,80.14
2023-02-01T04:46:58.647Z,80.33
2023-02-01T04:47:58.814Z,80.14
2023-02-01T04:48:58.541Z,79.66
2023-02-01T04:49:58.631Z,79.76
2023-02-01T04:50:58.615Z,80.14
2023-02-01T04:51:58.403Z,79.66
2023-02-01T04:52:59.450Z,79.57
2023-02-01T04:53:58.294Z,79.66
2023-02-01T04:54:59.565Z,79.66
2023-02-01T04:55:58.201Z,79.19
2023-02-01T04:56:58.459Z,79.28
2023-02-01T04:57:58.103Z,78.91
2023-02-01T04:59:19.146Z,78.24
2023-02-01T04:59:58.009Z,78.43
2023-02-01T05:00:58.163Z,78.15
2023-02-01T05:01:57.979Z,77.58
2023-02-01T05:02:57.880Z,77.67
2023-02-01T05:03:58.019Z,77.58
2023-02-01T05:04:57.938Z,78.24
2023-02-01T05:05:58.828Z,78.15
2023-02-01T05:06:57.669Z,77.86
2023-02-01T05:07:57.620Z,77.58
2023-02-01T05:08:57.624Z,77.58
2023-02-01T05:09:57.524Z,78.15
2023-02-01T05:10:57.648Z,77.48
2023-02-01T05:11:57.485Z,77.77
2023-02-01T05:12:57.377Z,77.96
2023-02-01T05:13:57.340Z,77.86
2023-02-01T05:14:57.462Z,77.77
2023-02-01T05:15:57.293Z,77.67
2023-02-01T05:16:58.296Z,78.05
2023-02-01T05:17:57.160Z,77.86
2023-02-01T05:18:57.114Z,77.96
2023-02-01T05:19:57.090Z,77.86
2023-02-01T05:20:56.999Z,77.58
2023-02-01T05:21:57.108Z,77.67
2023-02-01T05:22:56.900Z,77.96
2023-02-01T05:23:57.990Z,77.77
2023-02-01T05:24:56.797Z,77.77
2023-02-01T05:25:58.975Z,77.67
2023-02-01T05:26:56.703Z,77.67
2023-02-01T05:27:56.738Z,78.05
2023-02-01T05:28:56.607Z,77.58
2023-02-01T05:29:56.585Z,77.67
2023-02-01T05:30:56.631Z,77.29
2023-02-01T05:31:57.165Z,76.82
2023-02-01T05:32:56.567Z,77.48
2023-02-01T05:33:56.363Z,76.92
2023-02-01T05:34:56.319Z,77.39
2023-02-01T05:35:56.436Z,77.67
2023-02-01T05:36:56.396Z,77.77
2023-02-01T05:37:56.182Z,77.39
2023-02-01T05:38:56.204Z,77.58
2023-02-01T05:39:56.093Z,77.96
2023-02-01T05:40:56.027Z,77.77
2023-02-01T05:41:57.146Z,77.48
2023-02-01T05:42:55.928Z,77.58
2023-02-01T05:43:55.933Z,78.05
2023-02-01T05:44:55.995Z,77.58
2023-02-01T05:45:55.882Z,77.86
2023-02-01T05:46:55.742Z,77.77
2023-02-01T05:47:56.785Z,77.67
2023-02-01T05:48:55.653Z,77.67
2023-02-01T05:49:58.035Z,77.77
2023-02-01T05:50:55.543Z,77.39
2023-02-01T05:51:55.489Z,77.20
2023-02-01T05:52:56.616Z,77.39
2023-02-01T05:53:55.395Z,77.20
2023-02-01T05:54:57.452Z,77.77
2023-02-01T05:55:55.313Z,77.39
2023-02-01T05:56:55.261Z,77.86
2023-02-01T05:57:55.205Z,78.15
2023-02-01T05:58:55.229Z,77.67
2023-02-01T05:59:55.104Z,78.34
2023-02-01T06:03:48.580Z,78.62
2023-02-01T06:04:47.286Z,79.57
2023-02-01T06:05:47.289Z,79.57
2023-02-01T06:06:47.190Z,79.66
2023-02-01T06:07:47.133Z,80.04
2023-02-01T06:08:47.087Z,80.62
2023-02-01T06:09:49.180Z,80.80
2023-02-01T06:10:46.992Z,80.52
2023-02-01T06:11:47.127Z,80.43
2023-02-01T06:12:46.891Z,80.71
2023-02-01T06:13:46.838Z,80.71
2023-02-01T06:14:47.874Z,80.62
2023-02-01T06:15:46.949Z,80.43
2023-02-01T06:16:46.760Z,80.24
2023-02-01T06:17:46.663Z,80.99
2023-02-01T06:18:46.591Z,80.90
2023-02-01T06:19:46.543Z,81.27
2023-02-01T06:20:46.585Z,81.18
2023-02-01T06:21:46.446Z,80.90
2023-02-01T06:22:46.595Z,80.99
2023-02-01T06:23:46.443Z,80.99
2023-02-01T06:24:46.302Z,80.99
2023-02-01T06:25:46.249Z,80.62
2023-02-01T06:26:46.523Z,80.80
2023-02-01T06:27:46.184Z,80.71
2023-02-01T06:28:46.241Z,80.33
2023-02-01T06:29:46.088Z,79.95
2023-02-01T06:30:46.030Z,79.57
2023-02-01T06:31:46.232Z,79.47
2023-02-01T06:32:45.944Z,79.57
2023-02-01T06:33:45.962Z,79.47
2023-02-01T06:34:45.819Z,79.00
2023-02-01T06:35:46.079Z,79.38
2023-02-01T06:36:45.715Z,79.66
2023-02-01T06:37:46.914Z,79.28
2023-02-01T06:38:45.625Z,79.28
2023-02-01T06:39:45.695Z,79.57
2023-02-01T06:40:45.522Z,79.76
2023-02-01T06:41:45.716Z,79.95
2023-02-01T06:42:46.589Z,79.00
2023-02-01T06:43:45.523Z,79.28
2023-02-01T06:44:45.330Z,79.19
2023-02-01T06:45:45.334Z,79.28
2023-02-01T06:46:45.308Z,79.47
2023-02-01T06:47:45.180Z,79.19
2023-02-01T06:48:45.410Z,78.91
2023-02-01T06:49:45.362Z,79.19
2023-02-01T06:50:45.037Z,78.91
2023-02-01T06:51:45.176Z,78.62
2023-02-01T06:52:44.974Z,78.72
2023-02-01T06:53:44.891Z,78.34
2023-02-01T06:54:44.989Z,78.53
2023-02-01T06:55:46.071Z,78.53
2023-02-01T06:56:45.819Z,78.15
2023-02-01T06:57:44.717Z,78.62
2023-02-01T06:58:44.811Z,77.96
2023-02-01T06:59:44.610Z,78.19
2023-02-01T07:00:44.700Z,78.00
2023-02-01T07:01:44.546Z,77.71
2023-02-01T07:02:44.842Z,77.77
2023-02-01T07:03:44.413Z,77.39
2023-02-01T07:04:44.357Z,78.09
2023-02-01T07:05:44.308Z,77.81
2023-02-01T07:06:44.459Z,77.39
2023-02-01T07:07:44.239Z,77.58
2023-02-01T07:08:44.272Z,77.62
2023-02-01T07:09:44.117Z,77.58
2023-02-01T07:10:44.080Z,77.67
2023-02-01T07:11:44.022Z,77.48
2023-02-01T07:12:44.106Z,77.67
2023-02-01T07:13:43.921Z,77.77
2023-02-01T07:14:44.107Z,78.15
2023-02-01T07:15:43.827Z,78.62
2023-02-01T07:16:43.778Z,78.72
2023-02-01T07:17:43.739Z,79.00
2023-02-01T07:18:43.939Z,79.38
2023-02-01T07:19:43.634Z,79.28
2023-02-01T07:20:43.748Z,79.28
2023-02-01T07:21:43.537Z,79.47
2023-02-01T07:22:43.494Z,79.19
2023-02-01T07:23:43.436Z,79.38
2023-02-01T07:24:43.570Z,79.38
2023-02-01T07:25:43.345Z,80.14
2023-02-01T07:26:43.614Z,80.04
2023-02-01T07:27:43.243Z,80.71
2023-02-01T07:28:43.204Z,80.52
2023-02-01T07:29:43.399Z,80.52
2023-02-01T07:30:43.123Z,80.71
2023-02-01T07:31:43.210Z,79.95
2023-02-01T07:32:43.498Z,79.95
2023-02-01T07:33:43.030Z,79.57
2023-02-01T07:34:42.910Z,80.33
2023-02-01T07:35:43.040Z,79.57
2023-02-01T07:36:42.807Z,78.91
2023-02-01T07:37:42.850Z,79.00
2023-02-01T07:38:42.907Z,79.76
2023-02-01T07:39:42.676Z,79.85
2023-02-01T07:40:42.613Z,79.47
2023-02-01T07:41:42.666Z,79.19
2023-02-01T07:42:42.520Z,78.91
2023-02-01T07:43:42.704Z,78.91
2023-02-01T07:44:42.420Z,79.47
2023-02-01T07:45:42.599Z,79.38
2023-02-01T07:46:42.351Z,78.43
2023-02-01T07:47:42.509Z,78.05
2023-02-01T07:48:42.228Z,78.34
2023-02-01T07:49:42.535Z,78.34
2023-02-01T07:50:42.132Z,78.43
2023-02-01T07:51:42.080Z,78.05
2023-02-01T07:52:42.144Z,77.96
2023-02-01T07:53:42.031Z,77.29
2023-02-01T07:54:42.151Z,77.01
2023-02-01T07:55:41.892Z,77.11
2023-02-01T07:56:41.960Z,77.20
2023-02-01T07:57:41.794Z,77.48
2023-02-01T07:58:49.891Z,77.01
2023-02-01T07:59:49.365Z,77.20
2023-02-01T08:00:49.468Z,76.73
2023-02-01T08:01:41.623Z,76.44
2023-02-01T08:02:41.552Z,76.48
2023-02-01T08:03:41.508Z,75.78
2023-02-01T08:04:41.609Z,75.87
2023-02-01T08:05:41.403Z,75.78
2023-02-01T08:06:41.426Z,75.87
2023-02-01T08:07:41.483Z,75.78
2023-02-01T08:08:41.259Z,76.34
2023-02-01T08:09:41.211Z,75.87
2023-02-01T08:10:41.247Z,75.91
2023-02-01T08:11:41.113Z,75.11
2023-02-01T08:12:41.257Z,75.05
2023-02-01T08:13:41.187Z,75.21
2023-02-01T08:14:40.968Z,74.83
2023-02-01T08:15:41.072Z,75.40
2023-02-01T08:16:40.914Z,75.11
2023-02-01T08:17:40.887Z,75.02
2023-02-01T08:18:40.767Z,75.11
2023-02-01T08:19:41.135Z,75.21
2023-02-01T08:20:40.905Z,75.31
2023-02-01T08:21:40.638Z,75.40
2023-02-01T08:22:40.725Z,74.96
2023-02-01T08:23:40.525Z,75.24
2023-02-01T08:24:40.736Z,74.30
2023-02-01T08:25:40.446Z,74.20
2023-02-01T08:26:40.419Z,74.39
2023-02-01T08:27:40.550Z,75.24
2023-02-01T08:28:40.285Z,75.15
2023-02-01T08:29:40.365Z,74.96
2023-02-01T08:30:40.274Z,74.49
2023-02-01T08:31:40.450Z,74.39
2023-02-01T08:32:40.094Z,73.92
2023-02-01T08:33:40.191Z,74.11
2023-02-01T08:34:39.996Z,73.16
2023-02-01T08:35:43.716Z,73.35
2023-02-01T08:36:39.903Z,73.35
2023-02-01T08:37:39.877Z,73.07
2023-02-01T08:38:39.808Z,72.97
2023-02-01T08:39:40.023Z,73.35
2023-02-01T08:40:39.722Z,73.07
2023-02-01T08:41:39.828Z,73.35
2023-02-01T08:42:39.614Z,72.49
2023-02-01T08:43:39.691Z,73.16
2023-02-01T08:44:39.522Z,72.88
2023-02-01T08:45:39.706Z,73.25
2023-02-01T08:46:39.420Z,73.07
2023-02-01T08:47:39.673Z,72.88
2023-02-01T08:48:39.332Z,72.88
2023-02-01T08:49:39.281Z,72.78
2023-02-01T08:50:39.231Z,72.40
2023-02-01T08:51:39.290Z,72.78
2023-02-01T08:52:39.349Z,73.25
2023-02-01T08:53:39.303Z,73.25
2023-02-01T08:54:39.036Z,73.54
2023-02-01T08:55:38.989Z,72.97
2023-02-01T08:56:39.155Z,72.97
2023-02-01T08:57:38.893Z,72.49
2023-02-01T08:58:39.139Z,72.88
2023-02-01T08:59:38.800Z,71.92
2023-02-01T09:00:38.954Z,72.11
2023-02-01T09:01:38.719Z,72.06
2023-02-01T09:02:38.757Z,71.39
2023-02-01T09:03:38.663Z,71.39
2023-02-01T09:04:38.983Z,71.39
2023-02-01T09:05:49.097Z,71.39
2023-02-01T09:06:38.583Z,71.30
2023-02-01T09:07:38.413Z,71.11
2023-02-01T09:08:38.601Z,70.15
2023-02-01T09:09:38.329Z,70.15
2023-02-01T09:10:38.738Z,70.73
2023-02-01T09:11:38.225Z,70.15
2023-02-01T09:12:38.173Z,71.11
2023-02-01T09:13:38.129Z,71.01
2023-02-01T09:14:38.252Z,70.92
2023-02-01T09:15:38.111Z,70.73
2023-02-01T09:16:38.244Z,71.64
2023-02-01T09:17:37.944Z,71.67
2023-02-01T09:18:45.916Z,70.73
2023-02-01T09:19:37.858Z,71.48
2023-02-01T09:20:38.072Z,71.67
2023-02-01T09:21:37.748Z,71.01
2023-02-01T09:22:37.880Z,70.73
2023-02-01T09:23:37.664Z,70.73
2023-02-01T09:24:37.612Z,70.54
2023-02-01T09:25:37.562Z,70.10
2023-02-01T09:26:37.804Z,70.25
2023-02-01T09:27:37.765Z,69.87
2023-02-01T09:28:37.721Z,70.82
2023-02-01T09:29:37.401Z,70.15
2023-02-01T09:30:37.742Z,70.63
2023-02-01T09:31:37.724Z,70.54
2023-02-01T09:32:37.383Z,70.73
2023-02-01T09:33:37.183Z,70.19
2023-02-01T09:34:37.358Z,70.38
2023-02-01T09:35:37.359Z,70.10
2023-02-01T09:36:37.080Z,69.91
2023-02-01T09:37:37.173Z,70.10
2023-02-01T09:38:41.722Z,70.15
2023-02-01T09:39:37.184Z,71.30
2023-02-01T09:40:36.859Z,71.30
2023-02-01T09:41:36.833Z,71.11
2023-02-01T09:42:37.000Z,71.81
2023-02-01T09:43:36.708Z,71.77
2023-02-01T09:44:43.796Z,71.58
2023-02-01T09:45:36.627Z,71.67
2023-02-01T09:46:36.889Z,71.30
2023-02-01T09:47:36.692Z,71.58
2023-02-01T09:48:36.662Z,71.43
2023-02-01T09:49:36.419Z,71.58
2023-02-01T09:50:36.672Z,71.43
2023-02-01T09:51:36.405Z,71.81
2023-02-01T09:52:36.592Z,71.43
2023-02-01T09:53:36.273Z,71.62
2023-02-01T09:54:36.465Z,71.71
2023-02-01T09:55:36.150Z,71.43
2023-02-01T09:56:36.303Z,71.62
2023-02-01T09:57:36.050Z,71.23
2023-02-01T09:58:36.249Z,71.62
2023-02-01T09:59:36.024Z,71.71
2023-02-01T10:00:36.137Z,71.62
2023-02-01T10:01:35.945Z,71.62
2023-02-01T10:02:36.097Z,71.37
2023-02-01T10:03:36.021Z,71.27
2023-02-01T10:04:35.715Z,70.51
2023-02-01T10:05:35.677Z,70.51
2023-02-01T10:06:35.849Z,69.79
2023-02-01T10:07:35.577Z,69.12
2023-02-01T10:08:35.656Z,69.21
2023-02-01T10:09:35.506Z,69.21
2023-02-01T10:10:35.434Z,69.21
2023-02-01T10:11:35.474Z,69.12
2023-02-01T10:12:35.342Z,68.84
2023-02-01T10:13:35.490Z,68.55
2023-02-01T10:14:35.274Z,69.21
2023-02-01T10:15:35.561Z,68.65
2023-02-01T10:16:35.262Z,69.41
2023-02-01T10:17:35.313Z,69.02
2023-02-01T10:18:35.071Z,69.50
2023-02-01T10:19:35.129Z,68.93
2023-02-01T10:20:34.971Z,69.21
2023-02-01T10:21:34.952Z,69.31
2023-02-01T10:22:59.024Z,68.84
2023-02-01T10:23:35.037Z,68.46
2023-02-01T10:24:35.063Z,68.65
2023-02-01T10:25:34.745Z,68.65
2023-02-01T10:26:34.924Z,68.84
2023-02-01T10:27:34.935Z,68.46
2023-02-01T10:28:34.894Z,69.02
2023-02-01T10:29:34.567Z,69.31
2023-02-01T10:30:35.633Z,69.98
2023-02-01T10:31:34.604Z,70.26
2023-02-01T10:32:34.707Z,69.98
2023-02-01T10:33:34.403Z,70.51
2023-02-01T10:34:34.517Z,71.66
2023-02-01T10:35:34.284Z,73.55
2023-02-01T10:36:34.327Z,74.98
2023-02-01T10:37:34.201Z,77.17
2023-02-01T10:38:34.133Z,77.79
2023-02-01T10:39:34.090Z,78.74
2023-02-01T10:40:35.205Z,79.88
2023-02-01T10:41:33.988Z,80.83
2023-02-01T10:42:34.164Z,80.74
2023-02-01T10:43:34.017Z,81.21
2023-02-01T10:44:33.852Z,80.83
2023-02-01T10:45:33.999Z,80.93
2023-02-01T10:46:33.836Z,81.12
2023-02-01T10:47:34.013Z,81.12
2023-02-01T10:48:33.689Z,80.93
2023-02-01T10:49:33.836Z,80.64
2023-02-01T10:50:33.561Z,80.07
2023-02-01T10:51:33.618Z,81.12
2023-02-01T10:52:33.470Z,80.35
2023-02-01T10:53:33.629Z,81.12
2023-02-01T10:54:33.694Z,80.45
2023-02-01T10:55:33.329Z,79.73
2023-02-01T10:56:33.280Z,78.69
2023-02-01T10:57:33.358Z,78.69
2023-02-01T10:58:33.191Z,78.44
2023-02-01T10:59:34.424Z,77.58
2023-02-01T11:00:33.088Z,77.24
2023-02-01T11:01:33.260Z,77.43
2023-02-01T11:02:33.230Z,76.29
2023-02-01T11:03:32.971Z,74.52
2023-02-01T11:04:33.219Z,73.61
2023-02-01T11:05:32.863Z,71.61
2023-02-01T11:06:34.040Z,70.18
2023-02-01T11:07:32.775Z,69.32
2023-02-01T11:08:32.941Z,67.70
2023-02-01T11:09:32.885Z,67.61
2023-02-01T11:10:32.839Z,67.83
2023-02-01T11:11:32.592Z,67.83
2023-02-01T11:12:32.548Z,68.05
2023-02-01T11:13:32.512Z,65.29
2023-02-01T11:14:32.665Z,64.75
2023-02-01T11:15:32.418Z,62.94
2023-02-01T11:16:32.714Z,62.18
2023-02-01T11:17:32.328Z,62.27
2023-02-01T11:18:32.331Z,62.08
2023-02-01T11:19:32.545Z,62.40
2023-02-01T11:20:32.502Z,61.83
2023-02-01T11:21:32.161Z,60.90
2023-02-01T11:22:32.314Z,59.59
2023-02-01T11:23:32.110Z,57.97
2023-02-01T11:24:32.040Z,58.29
2023-02-01T11:25:32.128Z,57.46
2023-02-01T11:26:31.959Z,56.12
2023-02-01T11:27:33.352Z,55.96
2023-02-01T11:28:31.864Z,54.97
2023-02-01T11:29:32.107Z,53.73
2023-02-01T11:30:31.818Z,54.14
2023-02-01T11:31:31.899Z,53.75
2023-02-01T11:32:31.695Z,54.45
2023-02-01T11:33:31.887Z,53.14
2023-02-01T11:34:31.620Z,51.22
2023-02-01T11:35:31.603Z,50.36
2023-02-01T11:36:31.809Z,50.65
2023-02-01T11:37:31.501Z,50.10
2023-02-01T11:38:31.644Z,49.52
2023-02-01T11:39:31.680Z,49.33
2023-02-01T11:40:31.624Z,49.40
2023-02-01T11:41:31.341Z,49.50
2023-02-01T11:42:31.445Z,49.69
2023-02-01T11:43:32.423Z,49.11
2023-02-01T11:44:31.352Z,49.31
2023-02-01T11:45:31.208Z,49.21
2023-02-01T11:46:31.151Z,49.98
2023-02-01T11:47:31.113Z,49.40
2023-02-01T11:48:31.377Z,49.19
2023-02-01T11:49:32.258Z,49.29
2023-02-01T11:50:31.093Z,48.90
2023-02-01T11:51:30.953Z,48.93
2023-02-01T11:52:30.948Z,49.38
2023-02-01T11:53:30.872Z,49.45
2023-02-01T11:54:31.118Z,49.76
2023-02-01T11:55:30.791Z,49.38
2023-02-01T11:56:31.040Z,49.64
2023-02-01T11:57:30.710Z,49.55
2023-02-01T11:58:30.676Z,50.09
2023-02-01T11:59:32.698Z,50.35
2023-02-01T12:00:30.609Z,50.93
2023-02-01T12:01:30.779Z,51.95
2023-02-01T12:02:30.537Z,53.36
2023-02-01T12:03:30.660Z,54.29
2023-02-01T12:04:30.432Z,55.91
2023-02-01T12:05:30.588Z,56.77
2023-02-01T12:06:30.346Z,56.99
2023-02-01T12:07:30.604Z,56.23
2023-02-01T12:08:30.262Z,55.40
2023-02-01T12:09:30.217Z,55.01
2023-02-01T12:10:30.413Z,55.11
2023-02-01T12:11:30.145Z,54.75
2023-02-01T12:12:30.223Z,54.08
2023-02-01T12:13:30.283Z,53.89
2023-02-01T12:14:30.239Z,53.51
2023-02-01T12:15:29.974Z,53.70
2023-02-01T12:16:30.086Z,52.94
2023-02-01T12:17:29.896Z,53.34
2023-02-01T12:18:31.095Z,52.58
2023-02-01T12:19:29.831Z,51.72
2023-02-01T12:20:29.770Z,51.91
2023-02-01T12:21:29.729Z,51.36
2023-02-01T12:22:29.990Z,50.41
2023-02-01T12:23:29.651Z,50.38
2023-02-01T12:24:29.802Z,51.21
2023-02-01T12:25:29.863Z,51.79
2023-02-01T12:26:29.591Z,53.22
2023-02-01T12:27:30.109Z,53.49
2023-02-01T12:28:29.631Z,53.58
2023-02-01T12:29:29.398Z,54.34
2023-02-01T12:30:29.734Z,54.15
2023-02-01T12:31:29.407Z,53.77
2023-02-01T12:32:29.448Z,53.13
2023-02-01T12:33:29.238Z,52.94
2023-02-01T12:34:31.505Z,52.58
2023-02-01T12:35:29.155Z,51.24
2023-02-01T12:36:29.275Z,51.62
2023-02-01T12:37:29.541Z,51.53
2023-02-01T12:38:29.283Z,51.05
2023-02-01T12:39:28.994Z,51.24
2023-02-01T12:40:29.097Z,51.36
2023-02-01T12:41:28.910Z,50.31
2023-02-01T12:42:29.108Z,49.84
2023-02-01T12:43:28.862Z,50.98
2023-02-01T12:44:28.920Z,49.84
2023-02-01T12:45:28.828Z,50.19
2023-02-01T12:46:30.162Z,50.67
2023-02-01T12:47:28.676Z,50.86
2023-02-01T12:48:28.658Z,51.53
2023-02-01T12:49:28.761Z,51.31
2023-02-01T12:50:28.543Z,51.43
2023-02-01T12:51:29.788Z,51.89
2023-02-01T12:52:28.474Z,51.89
2023-02-01T12:53:28.573Z,51.34
2023-02-01T12:54:28.583Z,51.43
2023-02-01T12:55:28.357Z,50.19
2023-02-01T12:56:28.599Z,50.38
2023-02-01T12:57:28.257Z,50.29
2023-02-01T12:58:28.610Z,50.29
2023-02-01T12:59:28.183Z,50.95